Walan — 29439QE — position and weather

sailwx.info

Track history (hours):
 
Tides and Currents Weather Stations Pressure Air Temp Water Temp Dewpoint Dewpoint Depression Visibility Wind Speed Wind Dir Waves Ship Positions

Walan

Last reported at 2017-Sep-24 18:15 UTC. Time now 2017-Sep-25 01:11 UTC.
Position S 27°27' E 153°05'.

Length 24 m; draft 8.4 m.

Type: Passenger vessel. MMSI: 503577100.

Date/timePositionNaut miles runAvg speedWind from/ knotsBaromVisibWave heightAir tempDewpointWater temp
2017-Sep-24 18:15S 27°27' E 153°05'0 0.0
2017-Sep-24 18:00S 27°27' E 153°05'1 0.2
2017-Sep-24 13:37S 27°27' E 153°04'1 4.4
2017-Sep-24 13:24S 27°27' E 153°03'1 2.8
2017-Sep-24 12:54S 27°28' E 153°02'1 0.7
2017-Sep-24 11:52S 27°29' E 153°01'3 3.3
2017-Sep-24 11:07S 27°27' E 153°03'2 4.6
2017-Sep-24 10:43S 27°27' E 153°05'2 4.8
2017-Sep-24 10:20S 27°27' E 153°03'1 3.2
2017-Sep-24 10:00S 27°28' E 153°02'1 0.9
2017-Sep-24 08:53S 27°29' E 153°01'2 3.1
2017-Sep-24 08:10S 27°27' E 153°03'  
2017-Sep-20 19:37S 27°28' E 153°01'1 0.1
2017-Sep-20 12:54S 27°28' E 153°01'2 3.1
2017-Sep-20 12:21S 27°28' E 153°03'2 5.0
2017-Sep-20 11:58S 27°26' E 153°04'1 1.8
2017-Sep-20 11:28S 27°27' E 153°03'1 2.7
2017-Sep-20 11:00S 27°28' E 153°02'2 1.7
2017-Sep-20 09:59S 27°28' E 153°00'3 3.8
2017-Sep-20 09:18S 27°28' E 153°03'1 3.1
2017-Sep-20 08:53S 27°27' E 153°04'1 1.8
2017-Sep-20 08:27S 27°27' E 153°03'2 3.2
2017-Sep-20 07:53S 27°28' E 153°02'1 0.7
2017-Sep-20 06:50S 27°29' E 153°01'3 0.1
2017-Sep-19 07:39S 27°27' E 153°04'1 0.1
2017-Sep-18 20:27S 27°28' E 153°03'0 0.0
2017-Sep-18 19:53S 27°28' E 153°03'0 0.0
2017-Sep-18 19:28S 27°28' E 153°03'0 0.0
2017-Sep-18 18:56S 27°28' E 153°03'0 0.0
2017-Sep-18 18:31S 27°28' E 153°03'0 0.0
2017-Sep-18 18:00S 27°28' E 153°03'0 0.0
2017-Sep-18 17:27S 27°28' E 153°03'0 0.0
2017-Sep-18 16:56S 27°28' E 153°03'0 0.0
2017-Sep-18 16:28S 27°28' E 153°03'0 0.0
2017-Sep-18 15:45S 27°28' E 153°03'0 0.0
2017-Sep-18 15:29S 27°28' E 153°03'0 0.0
2017-Sep-18 14:56S 27°28' E 153°03'0 0.0
2017-Sep-18 14:30S 27°28' E 153°03'0 0.0
2017-Sep-18 13:56S 27°28' E 153°03'0 0.0
2017-Sep-18 13:31S 27°28' E 153°03'0 0.0
2017-Sep-18 12:59S 27°28' E 153°03'0 0.0
2017-Sep-18 12:21S 27°28' E 153°03'0 0.0
2017-Sep-18 11:58S 27°28' E 153°03'0 0.0
2017-Sep-18 11:30S 27°28' E 153°03'0 0.0
2017-Sep-18 10:58S 27°28' E 153°03'0 0.0
2017-Sep-18 10:30S 27°28' E 153°03'0 0.0
2017-Sep-18 10:00S 27°28' E 153°03'0 0.0
2017-Sep-18 09:26S 27°28' E 153°03'0 0.0
2017-Sep-18 09:00S 27°28' E 153°03'0 0.1
2017-Sep-18 08:17S 27°28' E 153°03'1 2.4
2017-Sep-18 08:00S 27°27' E 153°03'2 0.1
2017-Sep-17 20:17S 27°27' E 153°05'1 1.5
2017-Sep-17 19:30S 27°27' E 153°06'0 0.0
2017-Sep-17 12:54S 27°27' E 153°06'0 0.0
2017-Sep-17 12:30S 27°27' E 153°06'0 0.0
2017-Sep-17 11:59S 27°27' E 153°06'0 0.0
2017-Sep-17 11:30S 27°27' E 153°06'0 0.0
2017-Sep-17 10:59S 27°27' E 153°06'0 0.0
2017-Sep-17 10:31S 27°27' E 153°06'0 0.0
2017-Sep-17 10:00S 27°27' E 153°06'0 0.0
2017-Sep-17 09:30S 27°27' E 153°06'0 0.0
2017-Sep-17 09:01S 27°27' E 153°06'0 0.0
2017-Sep-17 08:30S 27°27' E 153°06'0 0.0
2017-Sep-17 08:00S 27°27' E 153°06'0 0.0
2017-Sep-16 20:00S 27°27' E 153°06'0 0.0
2017-Sep-16 19:31S 27°27' E 153°06'0 0.0
2017-Sep-16 19:00S 27°27' E 153°06'0 0.0
2017-Sep-16 18:31S 27°27' E 153°06'0 0.0
2017-Sep-16 18:00S 27°27' E 153°06'0 0.0
2017-Sep-16 17:31S 27°27' E 153°06'0 0.0
2017-Sep-16 17:00S 27°27' E 153°06'0 0.0
2017-Sep-16 16:30S 27°27' E 153°06'0 0.0
2017-Sep-16 15:59S 27°27' E 153°06'0 0.0
2017-Sep-16 15:27S 27°27' E 153°06'0 0.0
2017-Sep-16 14:58S 27°27' E 153°06'0 0.0
2017-Sep-16 14:29S 27°27' E 153°06'0 0.0
2017-Sep-16 13:43S 27°27' E 153°06'0 0.0
2017-Sep-16 13:28S 27°27' E 153°06'0 0.0
2017-Sep-16 12:59S 27°27' E 153°06'0 0.0
2017-Sep-16 11:36S 27°27' E 153°06'0 0.0
2017-Sep-16 10:45S 27°27' E 153°06'0 0.0
2017-Sep-16 10:29S 27°27' E 153°06'0 0.0
2017-Sep-16 09:59S 27°27' E 153°06'0 0.0
2017-Sep-16 09:30S 27°27' E 153°06'0 0.0
2017-Sep-16 09:00S 27°27' E 153°06'0 0.0
2017-Sep-16 08:31S 27°27' E 153°06'0 0.0
2017-Sep-16 08:00S 27°27' E 153°06'0 0.0
2017-Sep-16 07:30S 27°27' E 153°06'0 0.0
2017-Sep-16 07:00S 27°27' E 153°06'0 0.0
2017-Sep-15 21:14S 27°27' E 153°06'0 0.0
2017-Sep-15 21:00S 27°27' E 153°06'0 0.0
2017-Sep-15 20:30S 27°27' E 153°06'0 0.0
2017-Sep-15 20:01S 27°27' E 153°06'0 0.0
2017-Sep-15 19:31S 27°27' E 153°06'0 0.0
2017-Sep-15 19:00S 27°27' E 153°06'0 0.0
2017-Sep-15 18:30S 27°27' E 153°06'0 0.0
2017-Sep-15 18:01S 27°27' E 153°06'0 0.0
2017-Sep-15 17:29S 27°27' E 153°06'0 0.0
2017-Sep-15 17:00S 27°27' E 153°06'0 0.0
2017-Sep-15 16:29S 27°27' E 153°06'0 0.0
2017-Sep-15 16:00S 27°27' E 153°06'0 0.0
2017-Sep-15 13:50S 27°27' E 153°06'0 0.0
2017-Sep-15 12:50S 27°27' E 153°06'0 0.0
2017-Sep-15 12:28S 27°27' E 153°06'0 0.0
2017-Sep-15 11:58S 27°27' E 153°06'0 0.0
2017-Sep-15 11:30S 27°27' E 153°06'0 0.0
2017-Sep-15 11:00S 27°27' E 153°06'0 0.0
2017-Sep-15 10:30S 27°27' E 153°06'0 0.0
2017-Sep-15 10:00S 27°27' E 153°06'0 0.0
2017-Sep-15 09:30S 27°27' E 153°06'0 0.0
2017-Sep-15 09:00S 27°27' E 153°06'0 0.0
2017-Sep-15 08:31S 27°27' E 153°06'0 0.0
2017-Sep-15 08:01S 27°27' E 153°06'0 0.0
2017-Sep-15 07:30S 27°27' E 153°06'0 0.0
2017-Sep-15 07:00S 27°27' E 153°06'0 0.0
2017-Sep-14 21:15S 27°27' E 153°06'0 0.1
2017-Sep-14 21:00S 27°27' E 153°06'0 0.2
2017-Sep-14 20:23S 27°27' E 153°06'0 0.0
2017-Sep-14 19:57S 27°27' E 153°06'0 0.0
2017-Sep-14 19:30S 27°27' E 153°06'0 0.0
2017-Sep-14 19:00S 27°27' E 153°06'0 0.0
2017-Sep-14 18:30S 27°27' E 153°06'  
Track history (hours):
 
Tides and Currents Weather Stations Pressure Air Temp Water Temp Dewpoint Dewpoint Depression Visibility Wind Speed Wind Dir Waves Ship Positions

Walan

Last reported at 2017-Sep-24 18:15 UTC. Time now 2017-Sep-25 01:11 UTC.
Position S 27°27' E 153°05'.

Length 24 m; draft 8.4 m.

Type: Passenger vessel. MMSI: 503577100.

Date/timePositionNaut miles runAvg speedWind from/ knotsBaromVisibWave heightAir tempDewpointWater temp
2017-Sep-24 18:15S 27°27' E 153°05'0 0.0
2017-Sep-24 18:00S 27°27' E 153°05'1 0.2
2017-Sep-24 13:37S 27°27' E 153°04'1 4.4
2017-Sep-24 13:24S 27°27' E 153°03'1 2.8
2017-Sep-24 12:54S 27°28' E 153°02'1 0.7
2017-Sep-24 11:52S 27°29' E 153°01'3 3.3
2017-Sep-24 11:07S 27°27' E 153°03'2 4.6
2017-Sep-24 10:43S 27°27' E 153°05'2 4.8
2017-Sep-24 10:20S 27°27' E 153°03'1 3.2
2017-Sep-24 10:00S 27°28' E 153°02'1 0.9
2017-Sep-24 08:53S 27°29' E 153°01'2 3.1
2017-Sep-24 08:10S 27°27' E 153°03'  
2017-Sep-20 19:37S 27°28' E 153°01'1 0.1
2017-Sep-20 12:54S 27°28' E 153°01'2 3.1
2017-Sep-20 12:21S 27°28' E 153°03'2 5.0
2017-Sep-20 11:58S 27°26' E 153°04'1 1.8
2017-Sep-20 11:28S 27°27' E 153°03'1 2.7
2017-Sep-20 11:00S 27°28' E 153°02'2 1.7
2017-Sep-20 09:59S 27°28' E 153°00'3 3.8
2017-Sep-20 09:18S 27°28' E 153°03'1 3.1
2017-Sep-20 08:53S 27°27' E 153°04'1 1.8
2017-Sep-20 08:27S 27°27' E 153°03'2 3.2
2017-Sep-20 07:53S 27°28' E 153°02'1 0.7
2017-Sep-20 06:50S 27°29' E 153°01'3 0.1
2017-Sep-19 07:39S 27°27' E 153°04'1 0.1
2017-Sep-18 20:27S 27°28' E 153°03'0 0.0
2017-Sep-18 19:53S 27°28' E 153°03'0 0.0
2017-Sep-18 19:28S 27°28' E 153°03'0 0.0
2017-Sep-18 18:56S 27°28' E 153°03'0 0.0
2017-Sep-18 18:31S 27°28' E 153°03'0 0.0
2017-Sep-18 18:00S 27°28' E 153°03'0 0.0
2017-Sep-18 17:27S 27°28' E 153°03'0 0.0
2017-Sep-18 16:56S 27°28' E 153°03'0 0.0
2017-Sep-18 16:28S 27°28' E 153°03'0 0.0
2017-Sep-18 15:45S 27°28' E 153°03'0 0.0
2017-Sep-18 15:29S 27°28' E 153°03'0 0.0
2017-Sep-18 14:56S 27°28' E 153°03'0 0.0
2017-Sep-18 14:30S 27°28' E 153°03'0 0.0
2017-Sep-18 13:56S 27°28' E 153°03'0 0.0
2017-Sep-18 13:31S 27°28' E 153°03'0 0.0
2017-Sep-18 12:59S 27°28' E 153°03'0 0.0
2017-Sep-18 12:21S 27°28' E 153°03'0 0.0
2017-Sep-18 11:58S 27°28' E 153°03'0 0.0
2017-Sep-18 11:30S 27°28' E 153°03'0 0.0
2017-Sep-18 10:58S 27°28' E 153°03'0 0.0
2017-Sep-18 10:30S 27°28' E 153°03'0 0.0
2017-Sep-18 10:00S 27°28' E 153°03'0 0.0
2017-Sep-18 09:26S 27°28' E 153°03'0 0.0
2017-Sep-18 09:00S 27°28' E 153°03'0 0.1
2017-Sep-18 08:17S 27°28' E 153°03'1 2.4
2017-Sep-18 08:00S 27°27' E 153°03'2 0.1
2017-Sep-17 20:17S 27°27' E 153°05'1 1.5
2017-Sep-17 19:30S 27°27' E 153°06'0 0.0
2017-Sep-17 12:54S 27°27' E 153°06'0 0.0
2017-Sep-17 12:30S 27°27' E 153°06'0 0.0
2017-Sep-17 11:59S 27°27' E 153°06'0 0.0
2017-Sep-17 11:30S 27°27' E 153°06'0 0.0
2017-Sep-17 10:59S 27°27' E 153°06'0 0.0
2017-Sep-17 10:31S 27°27' E 153°06'0 0.0
2017-Sep-17 10:00S 27°27' E 153°06'0 0.0
2017-Sep-17 09:30S 27°27' E 153°06'0 0.0
2017-Sep-17 09:01S 27°27' E 153°06'0 0.0
2017-Sep-17 08:30S 27°27' E 153°06'0 0.0
2017-Sep-17 08:00S 27°27' E 153°06'0 0.0
2017-Sep-16 20:00S 27°27' E 153°06'0 0.0
2017-Sep-16 19:31S 27°27' E 153°06'0 0.0
2017-Sep-16 19:00S 27°27' E 153°06'0 0.0
2017-Sep-16 18:31S 27°27' E 153°06'0 0.0
2017-Sep-16 18:00S 27°27' E 153°06'0 0.0
2017-Sep-16 17:31S 27°27' E 153°06'0 0.0
2017-Sep-16 17:00S 27°27' E 153°06'0 0.0
2017-Sep-16 16:30S 27°27' E 153°06'0 0.0
2017-Sep-16 15:59S 27°27' E 153°06'0 0.0
2017-Sep-16 15:27S 27°27' E 153°06'0 0.0
2017-Sep-16 14:58S 27°27' E 153°06'0 0.0
2017-Sep-16 14:29S 27°27' E 153°06'0 0.0
2017-Sep-16 13:43S 27°27' E 153°06'0 0.0
2017-Sep-16 13:28S 27°27' E 153°06'0 0.0
2017-Sep-16 12:59S 27°27' E 153°06'0 0.0
2017-Sep-16 11:36S 27°27' E 153°06'0 0.0
2017-Sep-16 10:45S 27°27' E 153°06'0 0.0
2017-Sep-16 10:29S 27°27' E 153°06'0 0.0
2017-Sep-16 09:59S 27°27' E 153°06'0 0.0
2017-Sep-16 09:30S 27°27' E 153°06'0 0.0
2017-Sep-16 09:00S 27°27' E 153°06'0 0.0
2017-Sep-16 08:31S 27°27' E 153°06'0 0.0
2017-Sep-16 08:00S 27°27' E 153°06'0 0.0
2017-Sep-16 07:30S 27°27' E 153°06'0 0.0
2017-Sep-16 07:00S 27°27' E 153°06'0 0.0
2017-Sep-15 21:14S 27°27' E 153°06'0 0.0
2017-Sep-15 21:00S 27°27' E 153°06'0 0.0
2017-Sep-15 20:30S 27°27' E 153°06'0 0.0
2017-Sep-15 20:01S 27°27' E 153°06'0 0.0
2017-Sep-15 19:31S 27°27' E 153°06'0 0.0
2017-Sep-15 19:00S 27°27' E 153°06'0 0.0
2017-Sep-15 18:30S 27°27' E 153°06'0 0.0
2017-Sep-15 18:01S 27°27' E 153°06'0 0.0
2017-Sep-15 17:29S 27°27' E 153°06'0 0.0
2017-Sep-15 17:00S 27°27' E 153°06'0 0.0
2017-Sep-15 16:29S 27°27' E 153°06'0 0.0
2017-Sep-15 16:00S 27°27' E 153°06'0 0.0
2017-Sep-15 13:50S 27°27' E 153°06'0 0.0
2017-Sep-15 12:50S 27°27' E 153°06'0 0.0
2017-Sep-15 12:28S 27°27' E 153°06'0 0.0
2017-Sep-15 11:58S 27°27' E 153°06'0 0.0
2017-Sep-15 11:30S 27°27' E 153°06'0 0.0
2017-Sep-15 11:00S 27°27' E 153°06'0 0.0
2017-Sep-15 10:30S 27°27' E 153°06'0 0.0
2017-Sep-15 10:00S 27°27' E 153°06'0 0.0
2017-Sep-15 09:30S 27°27' E 153°06'0 0.0
2017-Sep-15 09:00S 27°27' E 153°06'0 0.0
2017-Sep-15 08:31S 27°27' E 153°06'0 0.0
2017-Sep-15 08:01S 27°27' E 153°06'0 0.0
2017-Sep-15 07:30S 27°27' E 153°06'0 0.0
2017-Sep-15 07:00S 27°27' E 153°06'0 0.0
2017-Sep-14 21:15S 27°27' E 153°06'0 0.1
2017-Sep-14 21:00S 27°27' E 153°06'0 0.2
2017-Sep-14 20:23S 27°27' E 153°06'0 0.0
2017-Sep-14 19:57S 27°27' E 153°06'0 0.0
2017-Sep-14 19:30S 27°27' E 153°06'0 0.0
2017-Sep-14 19:00S 27°27' E 153°06'0 0.0
2017-Sep-14 18:30S 27°27' E 153°06'  

Dump ship's entire track history